createdAt,value
2023-03-20T00:02:27.175Z,16.33
2023-03-20T00:04:56.151Z,15.45
2023-03-20T00:07:27.834Z,15.07
2023-03-20T00:09:57.929Z,15.25
2023-03-20T00:12:27.133Z,17.33
2023-03-20T00:14:55.719Z,19.00
2023-03-20T00:17:24.393Z,19.10
2023-03-20T00:19:54.663Z,16.77
2023-03-20T00:22:23.154Z,16.05
2023-03-20T00:24:51.691Z,16.30
2023-03-20T00:27:20.504Z,17.02
2023-03-20T00:29:48.877Z,15.73
2023-03-20T00:32:18.323Z,15.85
2023-03-20T00:34:47.365Z,16.25
2023-03-20T00:37:17.103Z,17.05
2023-03-20T00:39:45.435Z,14.00
2023-03-20T00:42:18.311Z,13.98
2023-03-20T00:44:48.274Z,14.02
2023-03-20T00:47:20.157Z,13.73
2023-03-20T00:49:49.971Z,14.30
2023-03-20T00:52:21.007Z,14.45
2023-03-20T00:54:49.466Z,14.25
2023-03-20T00:57:20.561Z,14.52
2023-03-20T00:59:51.916Z,14.52
2023-03-20T01:02:29.018Z,15.02
2023-03-20T01:04:57.998Z,13.82
2023-03-20T01:07:27.748Z,12.95
2023-03-20T01:10:04.983Z,14.27
2023-03-20T01:12:33.806Z,14.15
2023-03-20T01:15:01.993Z,14.27
2023-03-20T01:17:30.930Z,13.95
2023-03-20T01:19:59.225Z,13.57
2023-03-20T01:22:29.496Z,13.07
2023-03-20T01:24:58.364Z,12.93
2023-03-20T01:27:26.648Z,12.10
2023-03-20T01:29:54.856Z,12.32
2023-03-20T01:32:22.864Z,12.70
2023-03-20T01:34:51.443Z,12.80
2023-03-20T01:37:24.649Z,12.80
2023-03-20T01:39:54.966Z,12.52
2023-03-20T01:42:23.144Z,12.77
2023-03-20T01:44:51.789Z,12.93
2023-03-20T01:47:21.358Z,12.27
2023-03-20T01:50:08.448Z,11.32
2023-03-20T01:52:37.028Z,11.13
2023-03-20T01:55:07.051Z,10.30
2023-03-20T01:57:35.632Z,10.35
2023-03-20T02:00:06.991Z,11.13
2023-03-20T02:02:35.474Z,10.95
2023-03-20T02:05:07.875Z,11.70
2023-03-20T02:07:36.667Z,10.27
2023-03-20T02:10:07.399Z,10.30
2023-03-20T02:12:36.170Z,10.60
2023-03-20T02:15:04.887Z,10.23
2023-03-20T02:17:34.626Z,10.30
2023-03-20T02:20:12.413Z,10.07
2023-03-20T02:23:01.845Z,9.40
2023-03-20T02:26:06.793Z,10.40
2023-03-20T02:29:04.667Z,9.23
2023-03-20T02:32:08.048Z,9.10
2023-03-20T02:35:06.194Z,9.13
2023-03-20T02:38:13.231Z,9.25
2023-03-20T02:40:49.349Z,9.45
2023-03-20T02:43:27.495Z,9.57
2023-03-20T02:46:06.358Z,9.25
2023-03-20T02:48:46.207Z,9.10
2023-03-20T02:51:22.487Z,9.60
2023-03-20T02:53:54.890Z,7.90
2023-03-20T02:56:31.558Z,8.60
2023-03-20T02:59:09.663Z,8.57
2023-03-20T03:01:43.190Z,8.43
2023-03-20T03:04:17.261Z,9.32
2023-03-20T03:06:49.212Z,9.02
2023-03-20T03:09:22.729Z,8.25
2023-03-20T03:11:57.623Z,8.32
2023-03-20T03:14:33.989Z,8.80
2023-03-20T03:17:06.623Z,8.98
2023-03-20T03:19:38.279Z,8.10
2023-03-20T03:22:07.856Z,8.18
2023-03-20T03:24:41.861Z,8.10
2023-03-20T03:27:18.471Z,8.07
2023-03-20T03:29:54.111Z,7.25
2023-03-20T03:32:31.200Z,6.68
2023-03-20T03:37:42.607Z,6.00
2023-03-20T03:40:23.830Z,6.18
2023-03-20T03:43:00.668Z,5.82
2023-03-20T03:45:34.935Z,6.15
2023-03-20T03:48:07.602Z,6.35
2023-03-20T03:50:48.185Z,5.82
2023-03-20T03:53:20.671Z,5.97
2023-03-20T03:55:53.482Z,6.50
2023-03-20T03:58:29.841Z,5.93
2023-03-20T04:01:00.561Z,5.82
2023-03-20T04:03:34.120Z,5.80
2023-03-20T04:06:05.957Z,6.20
2023-03-20T04:08:35.708Z,6.10
2023-03-20T04:11:04.549Z,5.68
2023-03-20T04:13:34.730Z,5.93
2023-03-20T04:16:03.489Z,5.80
2023-03-20T04:18:32.077Z,5.85
2023-03-20T04:21:01.131Z,6.05
2023-03-20T04:23:29.861Z,5.95
2023-03-20T04:25:58.677Z,5.25
2023-03-20T04:28:27.114Z,5.90
2023-03-20T04:31:02.415Z,5.60
2023-03-20T04:33:32.019Z,5.78
2023-03-20T04:36:00.727Z,5.68
2023-03-20T04:38:29.467Z,5.60
2023-03-20T04:40:58.174Z,5.57
2023-03-20T04:43:27.297Z,5.18
2023-03-20T04:45:58.275Z,5.68
2023-03-20T04:48:28.004Z,5.82
2023-03-20T04:50:56.776Z,5.60
2023-03-20T04:53:27.222Z,6.95
2023-03-20T04:55:56.172Z,6.80
2023-03-20T04:58:25.094Z,7.32
2023-03-20T05:00:53.460Z,6.75
2023-03-20T05:03:24.372Z,6.85
2023-03-20T05:05:56.137Z,7.32
2023-03-20T05:08:24.845Z,7.80
2023-03-20T05:10:54.438Z,7.30
2023-03-20T05:13:23.020Z,7.47
2023-03-20T05:15:51.430Z,7.95
2023-03-20T05:18:20.061Z,7.20
2023-03-20T05:20:51.062Z,6.78
2023-03-20T05:23:19.930Z,6.20
2023-03-20T05:25:48.545Z,6.13
2023-03-20T05:28:17.670Z,6.38
2023-03-20T05:30:46.220Z,6.53
2023-03-20T05:33:15.258Z,7.10
2023-03-20T05:35:44.078Z,6.88
2023-03-20T05:38:14.117Z,6.60
2023-03-20T05:40:42.733Z,10.30
2023-03-20T05:43:11.360Z,8.68
2023-03-20T05:45:39.934Z,9.27
2023-03-20T05:48:08.175Z,9.73
2023-03-20T05:50:36.795Z,11.00
2023-03-20T05:53:04.988Z,9.50
2023-03-20T05:55:35.818Z,9.75
2023-03-20T05:58:04.629Z,10.27
2023-03-20T06:00:33.329Z,9.98
2023-03-20T06:03:02.353Z,10.73
2023-03-20T06:05:30.957Z,11.95
2023-03-20T06:07:59.255Z,12.25
2023-03-20T06:10:27.816Z,10.73
2023-03-20T06:12:57.917Z,10.05
2023-03-20T06:15:25.923Z,10.18
2023-03-20T06:17:54.622Z,10.60
2023-03-20T06:20:23.260Z,10.30
2023-03-20T06:22:52.031Z,10.45
2023-03-20T06:25:20.890Z,10.18
2023-03-20T06:27:49.530Z,10.82
2023-03-20T06:30:21.081Z,10.05
2023-03-20T06:32:49.544Z,10.60
2023-03-20T06:35:18.669Z,10.63
2023-03-20T06:37:47.274Z,10.10
2023-03-20T06:40:15.689Z,10.13
2023-03-20T06:42:44.212Z,10.20
2023-03-20T06:45:13.380Z,10.63
2023-03-20T06:47:43.758Z,8.75
2023-03-20T06:50:13.188Z,8.48
2023-03-20T06:52:42.073Z,7.97
2023-03-20T06:55:11.044Z,8.25
2023-03-20T06:57:41.551Z,8.45
2023-03-20T07:00:10.494Z,8.77
2023-03-20T07:02:38.999Z,7.80
2023-03-20T07:05:10.548Z,7.80
2023-03-20T07:07:39.442Z,6.50
2023-03-20T07:10:10.000Z,6.72
2023-03-20T07:12:38.858Z,6.80
2023-03-20T07:15:08.069Z,6.47
2023-03-20T07:17:37.589Z,7.00
2023-03-20T07:20:06.800Z,6.80
2023-03-20T07:22:37.301Z,6.45
2023-03-20T07:25:06.429Z,7.55
2023-03-20T07:27:35.122Z,7.32
2023-03-20T07:30:03.315Z,7.97
2023-03-20T07:32:32.444Z,8.93
2023-03-20T07:35:01.077Z,8.20
2023-03-20T07:37:29.765Z,7.97
2023-03-20T07:40:00.173Z,7.55
2023-03-20T07:42:28.208Z,7.28
2023-03-20T07:44:59.701Z,7.55
2023-03-20T07:47:28.289Z,6.97
2023-03-20T07:49:56.954Z,6.47
2023-03-20T07:52:25.309Z,6.15
2023-03-20T07:54:53.993Z,6.47
2023-03-20T07:57:23.786Z,6.68
2023-03-20T07:59:52.376Z,6.70
2023-03-20T08:02:21.160Z,7.35
2023-03-20T08:04:49.692Z,7.47
2023-03-20T08:07:18.295Z,7.68
2023-03-20T08:09:46.999Z,6.93
2023-03-20T08:12:16.898Z,6.50
2023-03-20T08:14:46.819Z,7.28
2023-03-20T08:17:18.713Z,8.60
2023-03-20T08:19:48.538Z,6.80
2023-03-20T08:22:17.069Z,6.05
2023-03-20T08:24:45.200Z,8.23
2023-03-20T08:27:13.766Z,7.25
2023-03-20T08:29:42.491Z,6.30
2023-03-20T08:32:12.916Z,6.88
2023-03-20T08:34:40.991Z,6.03
2023-03-20T08:37:10.072Z,4.97
2023-03-20T08:39:39.700Z,4.40
2023-03-20T08:42:08.380Z,4.40
2023-03-20T08:44:37.016Z,4.32
2023-03-20T08:47:07.724Z,3.97
2023-03-20T08:49:37.457Z,4.60
2023-03-20T08:52:06.200Z,4.60
2023-03-20T08:54:35.043Z,4.13
2023-03-20T08:57:04.545Z,4.25
2023-03-20T08:59:33.349Z,4.72
2023-03-20T09:02:01.450Z,4.93
2023-03-20T09:04:29.926Z,4.53
2023-03-20T09:07:01.401Z,4.88
2023-03-20T09:09:30.017Z,4.40
2023-03-20T09:11:58.683Z,4.85
2023-03-20T09:14:28.762Z,5.20
2023-03-20T09:16:57.053Z,5.15
2023-03-20T09:19:25.716Z,4.80
2023-03-20T09:21:54.522Z,5.20
2023-03-20T09:24:25.054Z,4.63
2023-03-20T09:26:53.671Z,5.15
2023-03-20T09:29:23.648Z,4.80
2023-03-20T09:31:54.448Z,5.10
2023-03-20T09:34:24.341Z,5.28
2023-03-20T09:36:52.714Z,5.03
2023-03-20T09:39:21.603Z,5.05
2023-03-20T09:41:57.538Z,4.93
2023-03-20T09:44:45.685Z,5.30
2023-03-20T09:47:21.616Z,5.60
2023-03-20T09:50:04.974Z,4.97
2023-03-20T09:52:36.494Z,5.50
2023-03-20T09:55:09.372Z,5.53
2023-03-20T09:57:41.598Z,5.72
2023-03-20T10:00:16.854Z,5.47
2023-03-20T10:02:51.465Z,5.35
2023-03-20T10:05:25.541Z,5.18
2023-03-20T10:07:57.359Z,5.40
2023-03-20T10:10:33.754Z,4.97
2023-03-20T10:13:35.046Z,5.68
2023-03-20T10:16:12.470Z,5.70
2023-03-20T10:18:50.762Z,5.53
2023-03-20T10:21:25.030Z,5.13
2023-03-20T10:24:00.425Z,4.95
2023-03-20T10:26:30.778Z,5.40
2023-03-20T10:29:01.087Z,5.10
2023-03-20T10:31:43.273Z,6.10
2023-03-20T10:34:29.772Z,5.43
2023-03-20T10:37:16.743Z,5.82
2023-03-20T10:39:56.420Z,5.57
2023-03-20T10:42:30.607Z,5.43
2023-03-20T10:45:03.487Z,5.55
2023-03-20T10:47:37.981Z,5.70
2023-03-20T10:50:10.501Z,5.40
2023-03-20T10:52:42.703Z,5.85
2023-03-20T10:55:16.229Z,5.60
2023-03-20T10:57:49.573Z,5.68
2023-03-20T11:00:22.499Z,5.72
2023-03-20T11:02:53.711Z,5.70
2023-03-20T11:05:26.673Z,5.93
2023-03-20T11:08:03.382Z,5.85
2023-03-20T11:10:33.823Z,5.60
2023-03-20T11:13:16.893Z,5.90
2023-03-20T11:15:47.079Z,5.68
2023-03-20T11:18:18.390Z,6.40
2023-03-20T11:20:50.877Z,5.60
2023-03-20T11:23:23.095Z,5.45
2023-03-20T11:25:57.849Z,6.03
2023-03-20T11:28:34.528Z,5.68
2023-03-20T11:31:07.165Z,6.00
2023-03-20T11:33:42.215Z,5.90
2023-03-20T11:36:22.916Z,5.80
2023-03-20T11:38:52.821Z,6.50
2023-03-20T11:41:25.874Z,5.63
2023-03-20T11:43:54.830Z,6.05
2023-03-20T11:46:25.473Z,6.10
2023-03-20T11:49:08.406Z,5.88
2023-03-20T11:51:38.853Z,6.38
2023-03-20T11:54:09.321Z,6.07
2023-03-20T11:56:38.497Z,6.40
2023-03-20T11:59:18.284Z,6.20
2023-03-20T12:01:50.216Z,6.18
2023-03-20T12:04:22.157Z,7.53
2023-03-20T12:06:54.192Z,7.25
2023-03-20T12:09:33.570Z,6.95
2023-03-20T12:12:03.562Z,7.13
2023-03-20T12:14:35.445Z,7.13
2023-03-20T12:17:09.898Z,7.20
2023-03-20T12:19:40.314Z,7.35
2023-03-20T12:22:10.667Z,7.88
2023-03-20T12:24:41.609Z,7.20
2023-03-20T12:27:17.353Z,7.72
2023-03-20T12:29:48.562Z,7.70
2023-03-20T12:32:18.757Z,6.97
2023-03-20T12:34:51.452Z,7.35
2023-03-20T12:37:19.561Z,7.60
2023-03-20T12:39:50.517Z,7.20
2023-03-20T12:42:30.409Z,7.68
2023-03-20T12:45:06.021Z,8.00
2023-03-20T12:47:59.333Z,7.13
2023-03-20T12:50:34.247Z,8.10
2023-03-20T12:53:14.453Z,8.32
2023-03-20T12:55:53.007Z,8.10
2023-03-20T12:58:28.461Z,7.82
2023-03-20T13:01:04.368Z,7.60
2023-03-20T13:03:58.390Z,8.50
2023-03-20T13:06:38.634Z,8.48
2023-03-20T13:09:44.713Z,8.45
2023-03-20T13:12:28.167Z,8.23
2023-03-20T13:15:04.762Z,8.73
2023-03-20T13:17:39.065Z,9.02
2023-03-20T13:20:22.797Z,8.73
2023-03-20T13:23:06.560Z,8.55
2023-03-20T13:26:01.889Z,8.25
2023-03-20T13:28:36.981Z,8.65
2023-03-20T13:31:20.645Z,8.82
2023-03-20T13:33:53.350Z,8.45
2023-03-20T13:36:30.877Z,8.40
2023-03-20T13:39:04.071Z,8.32
2023-03-20T13:41:33.190Z,8.77
2023-03-20T13:44:03.660Z,8.82
2023-03-20T13:46:34.866Z,9.02
2023-03-20T13:49:06.005Z,8.88
2023-03-20T13:51:37.247Z,9.05
2023-03-20T13:54:14.832Z,8.90
2023-03-20T13:56:50.631Z,9.18
2023-03-20T13:59:39.875Z,8.52
2023-03-20T14:02:18.702Z,8.30
2023-03-20T14:04:48.230Z,8.65
2023-03-20T14:07:31.739Z,8.77
2023-03-20T14:10:38.754Z,8.80
2023-03-20T14:13:14.112Z,8.25
2023-03-20T14:15:50.124Z,8.55
2023-03-20T14:18:19.770Z,9.00
2023-03-20T14:20:57.655Z,8.82
2023-03-20T14:23:36.228Z,8.60
2023-03-20T14:26:11.450Z,8.50
2023-03-20T14:28:53.505Z,8.55
2023-03-20T14:31:24.989Z,9.10
2023-03-20T14:34:02.565Z,8.60
2023-03-20T14:36:42.730Z,8.40
2023-03-20T14:39:24.636Z,8.50
2023-03-20T14:42:09.112Z,9.23
2023-03-20T14:45:00.157Z,9.15
2023-03-20T14:47:37.216Z,8.60
2023-03-20T14:50:14.681Z,8.90
2023-03-20T14:52:52.519Z,9.00
2023-03-20T14:55:32.519Z,9.00
2023-03-20T14:58:05.675Z,8.18
2023-03-20T15:00:36.677Z,9.18
2023-03-20T15:03:09.597Z,10.40
2023-03-20T15:05:39.384Z,8.70
2023-03-20T15:08:09.693Z,9.48
2023-03-20T15:10:39.499Z,9.57
2023-03-20T15:13:09.456Z,9.02
2023-03-20T15:15:37.748Z,9.25
2023-03-20T15:18:09.653Z,9.05
2023-03-20T15:20:38.418Z,9.93
2023-03-20T15:23:08.909Z,9.43
2023-03-20T15:25:40.370Z,9.82
2023-03-20T15:28:18.020Z,9.40
2023-03-20T15:30:50.073Z,8.95
2023-03-20T15:33:23.441Z,9.75
2023-03-20T15:35:53.101Z,9.63
2023-03-20T15:38:22.572Z,9.55
2023-03-20T15:40:52.089Z,9.20
2023-03-20T15:43:24.714Z,8.85
2023-03-20T15:46:02.931Z,9.20
2023-03-20T15:48:39.154Z,9.38
2023-03-20T15:51:09.297Z,9.63
2023-03-20T15:53:39.630Z,9.15
2023-03-20T15:56:17.866Z,8.85
2023-03-20T15:58:49.744Z,9.10
2023-03-20T16:01:20.413Z,9.65
2023-03-20T16:03:49.761Z,9.13
2023-03-20T16:06:23.747Z,9.55
2023-03-20T16:08:59.039Z,8.90
2023-03-20T16:11:36.372Z,9.10
2023-03-20T16:14:07.219Z,9.70
2023-03-20T16:16:37.786Z,9.52
2023-03-20T16:19:07.451Z,9.15
2023-03-20T16:21:40.634Z,9.68
2023-03-20T16:24:12.586Z,9.18
2023-03-20T16:26:45.951Z,9.32
2023-03-20T16:29:17.009Z,9.65
2023-03-20T16:31:50.610Z,9.48
2023-03-20T16:34:22.913Z,10.10
2023-03-20T16:36:55.101Z,9.40
2023-03-20T16:39:27.250Z,9.88
2023-03-20T16:42:10.182Z,8.90
2023-03-20T16:44:43.793Z,9.27
2023-03-20T16:47:21.784Z,9.25
2023-03-20T16:50:13.329Z,9.30
2023-03-20T16:52:51.156Z,8.85
2023-03-20T16:55:29.882Z,8.60
2023-03-20T16:58:01.939Z,8.75
2023-03-20T17:00:34.490Z,8.52
2023-03-20T17:03:13.161Z,8.57
2023-03-20T17:06:00.202Z,8.95
2023-03-20T17:08:39.429Z,8.95
2023-03-20T17:11:14.175Z,8.80
2023-03-20T17:13:43.892Z,9.20
2023-03-20T17:16:18.113Z,8.65
2023-03-20T17:18:47.056Z,8.73
2023-03-20T17:21:16.393Z,8.40
2023-03-20T17:23:44.811Z,9.32
2023-03-20T17:26:13.941Z,9.80
2023-03-20T17:28:43.443Z,9.90
2023-03-20T17:31:16.916Z,9.75
2023-03-20T17:33:47.168Z,9.45
2023-03-20T17:36:18.519Z,8.80
2023-03-20T17:38:51.109Z,9.05
2023-03-20T17:41:21.936Z,9.18
2023-03-20T17:43:51.480Z,9.07
2023-03-20T17:46:22.517Z,9.23
2023-03-20T17:48:52.754Z,9.60
2023-03-20T17:51:21.509Z,9.52
2023-03-20T17:53:55.199Z,9.02
2023-03-20T17:56:24.418Z,8.65
2023-03-20T17:58:53.034Z,9.43
2023-03-20T18:01:23.567Z,9.43
2023-03-20T18:03:52.762Z,9.43
2023-03-20T18:06:25.454Z,9.20
2023-03-20T18:08:54.595Z,11.07
2023-03-20T18:11:23.235Z,9.88
2023-03-20T18:13:52.007Z,9.65
2023-03-20T18:16:24.801Z,10.15
2023-03-20T18:18:55.163Z,9.85
2023-03-20T18:21:23.677Z,9.80
2023-03-20T18:23:52.472Z,9.80
2023-03-20T18:26:24.392Z,9.82
2023-03-20T18:28:56.688Z,10.90
2023-03-20T18:31:26.681Z,10.30
2023-03-20T18:33:55.702Z,10.75
2023-03-20T18:36:25.587Z,10.07
2023-03-20T18:38:54.194Z,9.80
2023-03-20T18:41:25.522Z,9.45
2023-03-20T18:43:55.624Z,11.23
2023-03-20T18:46:27.225Z,10.95
2023-03-20T18:48:56.790Z,10.30
2023-03-20T18:51:26.059Z,10.48
2023-03-20T18:53:54.883Z,11.52
2023-03-20T18:56:27.631Z,12.10
2023-03-20T18:58:56.855Z,11.27
2023-03-20T19:01:25.743Z,11.45
2023-03-20T19:03:56.601Z,11.45
2023-03-20T19:06:25.593Z,10.82
2023-03-20T19:08:54.839Z,10.63
2023-03-20T19:11:23.846Z,11.35
2023-03-20T19:13:54.693Z,10.23
2023-03-20T19:16:25.218Z,10.85
2023-03-20T19:18:58.840Z,9.90
2023-03-20T19:21:27.706Z,11.07
2023-03-20T19:23:58.187Z,10.70
2023-03-20T19:26:30.124Z,11.57
2023-03-20T19:29:01.266Z,10.95
2023-03-20T19:31:30.734Z,11.43
2023-03-20T19:34:02.185Z,11.32
2023-03-20T19:36:33.571Z,12.30
2023-03-20T19:39:04.795Z,12.50
2023-03-20T19:41:34.170Z,13.35
2023-03-20T19:44:02.885Z,13.60
2023-03-20T19:46:41.035Z,13.52
2023-03-20T19:49:30.406Z,13.07
2023-03-20T19:51:59.922Z,13.23
2023-03-20T19:54:28.669Z,14.57
2023-03-20T19:56:57.830Z,16.80
2023-03-20T19:59:32.576Z,16.15
2023-03-20T20:02:01.526Z,15.20
2023-03-20T20:04:31.987Z,15.13
2023-03-20T20:07:40.845Z,16.13
2023-03-20T20:09:49.356Z,17.15
2023-03-20T20:12:18.146Z,19.48
2023-03-20T20:14:47.151Z,15.85
2023-03-20T20:17:16.326Z,37.22
2023-03-20T20:19:46.995Z,22.38
2023-03-20T20:22:25.166Z,21.88
2023-03-20T20:24:55.471Z,19.90
2023-03-20T20:27:23.960Z,17.70
2023-03-20T20:29:53.937Z,19.13
2023-03-20T20:32:25.554Z,16.88
2023-03-20T20:40:35.803Z,15.73
2023-03-20T20:43:10.051Z,16.13
2023-03-20T20:45:39.509Z,16.20
2023-03-20T20:48:09.613Z,15.95
2023-03-20T20:50:40.913Z,15.48
2023-03-20T20:53:09.489Z,18.50
2023-03-20T20:55:38.505Z,18.95
2023-03-20T20:58:07.739Z,21.30
2023-03-20T21:00:49.448Z,17.70
2023-03-20T21:03:20.000Z,16.27
2023-03-20T21:05:50.023Z,16.35
2023-03-20T21:08:19.058Z,16.08
2023-03-20T21:10:48.429Z,16.33
2023-03-20T21:13:19.921Z,14.63
2023-03-20T21:15:48.514Z,15.95
2023-03-20T21:18:17.012Z,16.15
2023-03-20T21:20:46.210Z,16.30
2023-03-20T21:23:16.320Z,15.57
2023-03-20T21:25:47.199Z,16.05
2023-03-20T21:28:17.194Z,16.67
2023-03-20T21:31:12.574Z,16.60
2023-03-20T21:33:36.286Z,16.35
2023-03-20T21:36:05.337Z,16.27
2023-03-20T21:41:25.567Z,15.52
2023-03-20T21:43:54.557Z,14.90
2023-03-20T22:03:35.157Z,16.08
2023-03-20T22:09:45.775Z,15.55
2023-03-20T22:17:59.421Z,15.90
2023-03-20T22:20:58.829Z,16.38
2023-03-20T22:23:47.958Z,15.45
2023-03-20T22:26:54.980Z,15.50
2023-03-20T22:29:56.851Z,15.63
2023-03-20T22:32:33.340Z,15.30
2023-03-20T22:35:15.293Z,15.13
2023-03-20T22:38:08.509Z,14.57
2023-03-20T22:43:44.510Z,17.27
2023-03-20T22:46:07.780Z,18.42
2023-03-20T22:48:39.798Z,20.92
2023-03-20T22:51:09.182Z,18.13
2023-03-20T22:53:38.202Z,19.35
2023-03-20T22:56:08.184Z,20.73
2023-03-20T22:58:36.883Z,22.98
2023-03-20T23:01:08.987Z,20.58
2023-03-20T23:03:41.939Z,18.70
2023-03-20T23:06:15.691Z,17.85
2023-03-20T23:08:52.071Z,16.45
2023-03-20T23:11:23.769Z,17.58
2023-03-20T23:13:53.240Z,17.05
2023-03-20T23:16:23.955Z,17.70
2023-03-20T23:18:52.675Z,16.33
2023-03-20T23:21:21.307Z,16.45
2023-03-20T23:23:50.627Z,17.35
2023-03-20T23:26:21.469Z,16.13
2023-03-20T23:28:53.910Z,16.33
2023-03-20T23:31:27.866Z,16.52
2023-03-20T23:33:58.912Z,15.57
2023-03-20T23:36:36.524Z,17.20
2023-03-20T23:39:06.889Z,19.80
2023-03-20T23:44:24.926Z,19.42
2023-03-20T23:47:01.350Z,17.73
2023-03-20T23:49:37.521Z,17.75
2023-03-20T23:52:07.103Z,18.77
2023-03-20T23:54:36.213Z,18.90
2023-03-20T23:57:05.511Z,13.13
2023-03-20T23:59:33.777Z,16.35
